KABQ/ABQ METAR and TAF weather

Enter ICAO airport designator
Station Type Date Time Source
KABQ METAR 2022/11/27 07:52 UTC NOAA

KABQ 270752Z 18004KT 10SM BKN120 OVC200 04/M11 A2996 RMK AO2 SLP119 HZ ALQDS T00441106


Station Type Date Time Source
KABQ Decoded METAR 2022/11/27 07:52 UTC NOAA

ALBUQUERQUE INTERNATIONAL AIRPORT, NM, United States (KABQ) 35-02N 106-36W 1618M
Nov 27, 2022 - 02:52 AM EST / 2022.11.27 0752 UTC
Wind: from the S (180 degrees) at 5 MPH (4 KT):0
Visibility: 10 mile(s):0
Sky conditions: overcast
Temperature: 39.9 F (4.4 C)
Dew Point: 12.9 F (-10.6 C)
Relative Humidity: 32%
Pressure (altimeter): 29.96 in. Hg (1014 hPa)
ob: KABQ 270752Z 18004KT 10SM BKN120 OVC200 04/M11 A2996 RMK AO2 SLP119 HZ ALQDS T00441106
cycle: 8

Station Type Date Time Source
KABQ TAF 2022/11/27 06:30 UTC NOAA

TAF KABQ 270527Z 2706/2806 VRB06KT P6SM BKN110
FM271700 30012KT P6SM SCT110
FM280000 VRB06KT P6SM SKC

Example: see airport list